Time;durP1;ratioP1;P1;durP2;ratioP2;P2;SDS_P1;SDS_P2;PMS_P1;PMS_P2;Temp;Humidity;BMP_temperature;BMP_pressure;BME280_temperature;BME280_humidity;BME280_pressure;Samples;Min_cycle;Max_cycle;Signal;HPM_P1;HPM_P2
2022/10/20 00:00:57;;;;;;;19.43;17.83;;;9.90;99.90;;;;;;5094110;28;20200;-75
2022/10/20 00:03:25;;;;;;;11.03;9.93;;;9.80;99.90;;;;;;5090269;28;20189;-77
2022/10/20 00:05:50;;;;;;;17.80;12.37;;;9.80;99.90;;;;;;5076481;28;20632;-77
2022/10/20 00:08:16;;;;;;;14.37;13.13;;;9.70;99.90;;;;;;5076365;28;20214;-76
2022/10/20 00:10:51;;;;;;;14.43;12.53;;;9.70;99.90;;;;;;5079752;28;20550;-78
2022/10/20 00:13:16;;;;;;;20.43;11.73;;;9.60;99.90;;;;;;5079656;28;20185;-77
2022/10/20 00:15:48;;;;;;;18.47;11.40;;;9.60;99.90;;;;;;5077725;28;20193;-77
2022/10/20 00:18:14;;;;;;;15.80;14.40;;;9.60;99.90;;;;;;5079336;28;20186;-77
2022/10/20 00:20:40;;;;;;;17.90;16.07;;;9.60;99.90;;;;;;5079611;28;20237;-77
2022/10/20 00:23:05;;;;;;;17.83;15.13;;;9.50;99.90;;;;;;5077454;28;20177;-77
2022/10/20 00:25:31;;;;;;;22.00;20.20;;;9.50;99.90;;;;;;5079988;28;20681;-77
2022/10/20 00:27:57;;;;;;;26.47;24.57;;;9.50;99.90;;;;;;5079277;28;20214;-76
2022/10/20 00:30:23;;;;;;;28.70;26.33;;;9.60;99.90;;;;;;5080037;28;20174;-77
2022/10/20 00:32:48;;;;;;;37.60;34.47;;;9.60;99.90;;;;;;5078246;28;20189;-77
2022/10/20 00:35:14;;;;;;;47.70;44.60;;;9.50;99.90;;;;;;5082785;28;20196;-77
2022/10/20 00:37:40;;;;;;;35.73;33.07;;;9.60;99.90;;;;;;5076928;28;20197;-76
2022/10/20 00:40:06;;;;;;;42.43;39.33;;;9.60;99.90;;;;;;5077055;28;20180;-76
2022/10/20 00:42:32;;;;;;;20.50;18.40;;;9.60;99.90;;;;;;5077319;28;20311;-76
2022/10/20 00:44:59;;;;;;;22.47;20.57;;;9.50;99.90;;;;;;5077621;28;20217;-78
2022/10/20 00:47:45;;;;;;;26.57;23.80;;;9.50;99.90;;;;;;5079809;28;20797;-78
2022/10/20 00:50:24;;;;;;;27.47;24.67;;;9.50;99.90;;;;;;5082580;28;20196;-75
2022/10/20 00:52:50;;;;;;;21.73;20.03;;;9.50;99.90;;;;;;5080167;28;20276;-77
2022/10/20 00:55:22;;;;;;;26.10;23.97;;;9.50;99.90;;;;;;5087933;28;20216;-75
2022/10/20 00:57:50;;;;;;;20.17;18.27;;;9.40;99.90;;;;;;5092238;28;20209;-76
2022/10/20 01:00:17;;;;;;;18.70;17.20;;;9.40;99.90;;;;;;5090118;28;20200;-76
2022/10/20 01:02:44;;;;;;;19.03;15.57;;;9.40;99.90;;;;;;5078826;28;20644;-77
2022/10/20 01:05:11;;;;;;;19.47;15.07;;;9.30;99.90;;;;;;5076298;28;20198;-77
2022/10/20 01:07:36;;;;;;;19.30;14.20;;;9.30;99.90;;;;;;5075670;28;20182;-76
2022/10/20 01:10:04;;;;;;;18.07;15.07;;;9.30;99.90;;;;;;5075485;28;20196;-78
2022/10/20 01:12:49;;;;;;;12.33;11.23;;;9.30;99.90;;;;;;5075323;28;20174;-77
2022/10/20 01:16:02;;;;;;;18.17;16.47;;;9.20;99.90;;;;;;5079479;28;20289;-77
2022/10/20 01:18:34;;;;;;;21.90;20.00;;;9.20;99.90;;;;;;5023727;28;20201;-77
2022/10/20 01:21:36;;;;;;;18.17;16.40;;;9.20;99.90;;;;;;5076645;28;20524;-77
2022/10/20 01:24:39;;;;;;;19.73;17.80;;;9.20;99.90;;;;;;5076032;28;20202;-77
2022/10/20 01:27:15;;;;;;;24.30;22.57;;;9.20;99.90;;;;;;5073842;28;20183;-77
2022/10/20 01:29:59;;;;;;;19.23;17.53;;;9.20;99.90;;;;;;5075455;28;20239;-77
2022/10/20 01:32:59;;;;;;;29.23;26.80;;;9.20;99.90;;;;;;5076507;28;20186;-77
2022/10/20 01:36:01;;;;;;;40.97;38.17;;;9.20;99.90;;;;;;5073443;28;20705;-77
2022/10/20 01:38:31;;;;;;;37.33;34.53;;;9.20;99.90;;;;;;5064125;28;20224;-77
2022/10/20 01:41:16;;;;;;;31.97;29.67;;;9.20;99.90;;;;;;5091426;28;20174;-75
2022/10/20 01:43:45;;;;;;;21.03;19.03;;;9.20;99.90;;;;;;5066873;28;20673;-76
2022/10/20 01:46:13;;;;;;;21.73;19.43;;;9.20;99.90;;;;;;5077283;28;20231;-76
2022/10/20 01:48:40;;;;;;;22.10;20.27;;;9.20;99.90;;;;;;5070291;28;20209;-77
2022/10/20 01:51:07;;;;;;;20.53;18.70;;;9.20;99.90;;;;;;5070594;28;20264;-76
2022/10/20 01:53:33;;;;;;;19.63;17.93;;;9.20;99.90;;;;;;5072038;28;20181;-77
2022/10/20 01:56:00;;;;;;;19.70;13.57;;;9.10;99.90;;;;;;5072633;28;20261;-77
2022/10/20 01:58:45;;;;;;;18.73;15.10;;;9.10;99.90;;;;;;5071641;28;20181;-76
2022/10/20 02:01:48;;;;;;;17.27;13.90;;;9.10;99.90;;;;;;5071724;28;20185;-77
2022/10/20 02:04:16;;;;;;;18.40;16.57;;;9.20;99.90;;;;;;5052009;28;20208;-77
2022/10/20 02:06:50;;;;;;;28.30;25.77;;;9.20;99.90;;;;;;5052398;28;20182;-77
2022/10/20 02:09:30;;;;;;;35.50;32.73;;;9.20;99.90;;;;;;5053702;28;20213;-77
2022/10/20 02:12:07;;;;;;;49.50;45.83;;;9.20;99.90;;;;;;5053754;28;20258;-77
2022/10/20 02:14:34;;;;;;;44.50;41.40;;;9.30;99.90;;;;;;5054482;28;20210;-78
2022/10/20 02:17:08;;;;;;;35.27;32.53;;;9.30;99.90;;;;;;5073421;28;20178;-78
2022/10/20 02:19:38;;;;;;;53.00;49.27;;;9.30;99.90;;;;;;5078459;28;20272;-78
2022/10/20 02:22:06;;;;;;;48.30;44.67;;;9.40;99.90;;;;;;5078144;28;20197;-77
2022/10/20 02:24:36;;;;;;;45.13;41.77;;;9.40;99.90;;;;;;5078797;28;20303;-77
2022/10/20 02:27:08;;;;;;;25.17;22.87;;;9.40;99.90;;;;;;5085276;28;20188;-77
2022/10/20 02:29:40;;;;;;;31.13;28.43;;;9.40;99.90;;;;;;5087110;28;20205;-76
2022/10/20 02:32:07;;;;;;;29.37;26.87;;;9.40;99.90;;;;;;5073148;28;20699;-77
2022/10/20 02:34:33;;;;;;;29.13;26.67;;;9.50;99.90;;;;;;5072259;28;20212;-76
2022/10/20 02:36:59;;;;;;;37.80;34.87;;;9.50;99.90;;;;;;5070235;28;20216;-76
2022/10/20 02:39:25;;;;;;;39.20;36.00;;;9.40;99.90;;;;;;5069644;28;20212;-76
2022/10/20 02:41:51;;;;;;;36.83;33.67;;;9.50;99.90;;;;;;5076393;28;20184;-76
2022/10/20 02:44:17;;;;;;;34.40;31.77;;;9.40;99.90;;;;;;5079407;28;20202;-76
2022/10/20 02:46:43;;;;;;;36.50;33.17;;;9.50;99.90;;;;;;5069836;28;20265;-77
2022/10/20 02:49:09;;;;;;;26.37;23.70;;;9.60;99.90;;;;;;5070597;28;20300;-77
2022/10/20 02:51:34;;;;;;;29.33;26.93;;;9.60;99.90;;;;;;5070489;28;20182;-75
2022/10/20 02:54:00;;;;;;;35.27;32.53;;;9.60;99.90;;;;;;5072019;28;20236;-77
2022/10/20 02:56:26;;;;;;;43.97;40.47;;;9.60;99.90;;;;;;5071157;28;20222;-77
2022/10/20 02:58:52;;;;;;;43.30;39.93;;;9.70;99.90;;;;;;5070998;28;20226;-76
2022/10/20 03:01:18;;;;;;;28.40;23.63;;;9.80;99.90;;;;;;5071581;28;20612;-77
2022/10/20 03:03:44;;;;;;;25.27;22.33;;;9.90;99.90;;;;;;5073680;28;20200;-77
2022/10/20 03:06:13;;;;;;;54.13;49.60;;;10.10;99.90;;;;;;5076006;28;20561;-77
2022/10/20 03:08:40;;;;;;;45.87;41.40;;;10.30;99.90;;;;;;5076647;28;20210;-78
2022/10/20 03:11:06;;;;;;;31.60;24.73;;;10.50;99.90;;;;;;5076386;28;20588;-78
2022/10/20 03:13:32;;;;;;;26.90;20.87;;;10.80;99.90;;;;;;5076506;28;20571;-77
2022/10/20 03:15:58;;;;;;;63.17;57.90;;;11.00;99.90;;;;;;5078630;28;20225;-76
2022/10/20 03:18:24;;;;;;;32.40;26.67;;;11.20;99.90;;;;;;5076783;28;20174;-78
2022/10/20 03:20:51;;;;;;;28.90;20.63;;;11.40;99.90;;;;;;5080881;28;20189;-77
2022/10/20 03:23:18;;;;;;;69.20;63.30;;;11.60;99.90;;;;;;5072323;28;20174;-77
2022/10/20 03:25:43;;;;;;;37.90;25.27;;;11.80;99.90;;;;;;5073576;28;20220;-77
2022/10/20 03:28:09;;;;;;;26.50;16.77;;;11.90;99.90;;;;;;5076271;28;20281;-77
2022/10/20 03:30:35;;;;;;;17.17;11.30;;;12.00;99.90;;;;;;5075613;28;20178;-77
2022/10/20 03:33:00;;;;;;;54.43;49.90;;;12.00;99.90;;;;;;5094183;23;20222;-77
2022/10/20 03:35:26;;;;;;;47.10;43.00;;;12.10;99.90;;;;;;5069059;28;20216;-80
2022/10/20 03:37:52;;;;;;;48.60;44.17;;;12.00;99.90;;;;;;5054452;28;20185;-80
2022/10/20 03:40:18;;;;;;;35.47;32.20;;;12.00;99.90;;;;;;5052886;28;20182;-81
2022/10/20 03:42:44;;;;;;;29.47;26.33;;;12.00;99.90;;;;;;5071021;28;20202;-79
2022/10/20 03:45:10;;;;;;;25.87;15.70;;;12.00;99.90;;;;;;5066473;28;20186;-81
2022/10/20 03:47:36;;;;;;;26.87;15.77;;;12.00;99.90;;;;;;5053934;28;20190;-80
2022/10/20 03:50:03;;;;;;;25.77;19.80;;;12.00;99.90;;;;;;5056759;28;20275;-81
2022/10/20 03:52:29;;;;;;;27.60;16.70;;;12.00;99.90;;;;;;5066388;28;20205;-81
2022/10/20 03:54:54;;;;;;;28.47;20.70;;;12.00;99.90;;;;;;5058371;28;20175;-81
2022/10/20 03:57:20;;;;;;;23.90;18.60;;;12.00;99.90;;;;;;5056602;28;20260;-81
2022/10/20 03:59:46;;;;;;;25.80;20.70;;;12.00;99.90;;;;;;5055262;28;20185;-80
2022/10/20 04:02:28;;;;;;;25.00;18.07;;;12.00;99.90;;;;;;5049498;28;20257;-80
2022/10/20 04:04:54;;;;;;;23.37;20.90;;;12.00;99.90;;;;;;5037140;28;20563;-80
2022/10/20 04:07:20;;;;;;;22.63;19.13;;;12.00;99.90;;;;;;5044815;28;20261;-80
2022/10/20 04:09:46;;;;;;;20.40;17.87;;;12.00;99.90;;;;;;5056085;28;20213;-82
2022/10/20 04:12:11;;;;;;;30.00;27.27;;;12.00;99.90;;;;;;5055324;28;20649;-81
2022/10/20 04:14:37;;;;;;;28.50;25.70;;;12.00;99.90;;;;;;5058164;28;20186;-81
2022/10/20 04:17:03;;;;;;;31.77;29.00;;;12.00;99.90;;;;;;5060041;28;20174;-81
2022/10/20 04:19:28;;;;;;;61.27;57.20;;;12.00;99.90;;;;;;5054376;28;20183;-80
2022/10/20 04:21:54;;;;;;;76.47;71.27;;;12.00;99.90;;;;;;5037779;28;20186;-81
2022/10/20 04:24:20;;;;;;;79.70;74.57;;;12.00;99.90;;;;;;5036048;28;20194;-77
2022/10/20 04:26:47;;;;;;;87.37;81.87;;;12.00;99.90;;;;;;5032316;28;20286;-77
2022/10/20 04:29:13;;;;;;;71.90;67.20;;;12.00;99.90;;;;;;5033374;28;20648;-76
2022/10/20 04:31:39;;;;;;;72.77;68.20;;;12.00;99.90;;;;;;5032055;28;20296;-77
2022/10/20 04:34:05;;;;;;;67.87;63.17;;;12.10;99.90;;;;;;5032103;28;20260;-77
2022/10/20 04:36:30;;;;;;;106.30;100.13;;;12.10;99.90;;;;;;5032295;28;20259;-78
2022/10/20 04:38:56;;;;;;;132.70;124.83;;;12.10;99.90;;;;;;5032058;28;20187;-77
2022/10/20 04:41:22;;;;;;;153.43;144.30;;;12.10;99.90;;;;;;5037322;28;20180;-77
2022/10/20 04:43:51;;;;;;;159.77;150.47;;;12.20;99.90;;;;;;5038306;28;20214;-77
2022/10/20 04:46:18;;;;;;;137.80;129.87;;;12.20;99.90;;;;;;5032085;28;20186;-77
2022/10/20 04:48:44;;;;;;;107.53;101.23;;;12.20;99.90;;;;;;5032282;28;20211;-78
2022/10/20 04:51:13;;;;;;;88.73;83.50;;;12.20;99.90;;;;;;5032941;28;20191;-78
2022/10/20 04:53:39;;;;;;;74.80;70.20;;;12.20;99.90;;;;;;5031510;28;20205;-78
2022/10/20 04:56:06;;;;;;;62.27;58.23;;;12.20;99.90;;;;;;5041454;28;20179;-78
2022/10/20 04:58:33;;;;;;;56.50;52.83;;;12.30;99.90;;;;;;5052506;28;20235;-78
2022/10/20 05:01:03;;;;;;;58.23;54.53;;;12.30;99.90;;;;;;5051658;28;20190;-77
2022/10/20 05:03:29;;;;;;;57.77;53.73;;;12.30;99.90;;;;;;5052038;28;20683;-77
2022/10/20 05:06:09;;;;;;;61.27;57.40;;;12.30;99.90;;;;;;5052953;28;20261;-77
2022/10/20 05:08:35;;;;;;;60.70;56.80;;;12.30;99.90;;;;;;5034467;28;20221;-77
2022/10/20 05:11:00;;;;;;;61.83;57.90;;;12.20;99.90;;;;;;5052482;28;20712;-77
2022/10/20 05:13:26;;;;;;;62.13;58.17;;;12.20;99.90;;;;;;5052283;28;20320;-77
2022/10/20 05:15:53;;;;;;;57.97;54.37;;;12.20;99.90;;;;;;5050976;28;20316;-78
2022/10/20 05:18:19;;;;;;;60.33;56.40;;;12.20;99.90;;;;;;5052176;28;20305;-77
2022/10/20 05:20:44;;;;;;;66.33;62.17;;;12.10;99.90;;;;;;5051182;28;20186;-77
2022/10/20 05:23:10;;;;;;;72.03;67.60;;;12.10;99.90;;;;;;5051760;28;20262;-71
2022/10/20 05:25:37;;;;;;;68.43;64.10;;;12.20;99.90;;;;;;5052054;28;20227;-70
2022/10/20 05:28:04;;;;;;;63.37;59.50;;;12.20;99.90;;;;;;5051649;28;20206;-70
2022/10/20 05:30:30;;;;;;;60.53;56.87;;;12.20;99.90;;;;;;5051449;28;20178;-71
2022/10/20 05:32:56;;;;;;;68.90;64.67;;;12.20;99.90;;;;;;5051653;28;20214;-70
2022/10/20 05:35:21;;;;;;;62.60;58.80;;;12.20;99.90;;;;;;5051957;28;20181;-70
2022/10/20 05:37:47;;;;;;;52.27;49.13;;;12.20;99.90;;;;;;5051068;28;20179;-70
2022/10/20 05:40:13;;;;;;;61.83;58.23;;;12.20;99.90;;;;;;5051808;28;20174;-70
2022/10/20 05:42:39;;;;;;;62.97;59.13;;;12.20;99.90;;;;;;5050460;28;20581;-70
2022/10/20 05:45:05;;;;;;;57.20;53.77;;;12.20;99.90;;;;;;5051501;28;20684;-69
2022/10/20 05:47:32;;;;;;;61.27;57.27;;;12.30;99.90;;;;;;5051201;28;20269;-69
2022/10/20 05:49:57;;;;;;;57.47;53.97;;;12.30;99.90;;;;;;5051378;28;20696;-70
2022/10/20 05:52:23;;;;;;;70.43;66.37;;;12.30;99.90;;;;;;5051200;28;20201;-69
2022/10/20 05:54:49;;;;;;;58.70;54.97;;;12.20;99.90;;;;;;5051783;28;20178;-69
2022/10/20 05:57:15;;;;;;;67.00;63.07;;;12.20;99.90;;;;;;5044482;28;20204;-76
2022/10/20 05:59:41;;;;;;;62.73;59.03;;;12.20;99.90;;;;;;5053388;28;20674;-75
2022/10/20 06:02:11;;;;;;;62.87;59.20;;;12.10;99.90;;;;;;5058402;28;20217;-79
2022/10/20 06:04:36;;;;;;;76.83;72.27;;;12.10;99.90;;;;;;5064705;28;20193;-78
2022/10/20 06:07:04;;;;;;;82.20;77.67;;;12.10;99.90;;;;;;5064356;28;20536;-79
2022/10/20 06:09:31;;;;;;;93.67;88.47;;;12.10;99.90;;;;;;5066978;28;20271;-77
2022/10/20 06:11:58;;;;;;;108.20;102.30;;;12.10;99.90;;;;;;5067386;28;20178;-78
2022/10/20 06:14:24;;;;;;;105.93;100.17;;;12.10;99.90;;;;;;5063876;28;20190;-77
2022/10/20 06:16:51;;;;;;;109.60;103.40;;;12.10;99.90;;;;;;5063838;28;20182;-79
2022/10/20 06:19:18;;;;;;;106.77;100.90;;;12.10;99.90;;;;;;5063824;28;20713;-78
2022/10/20 06:21:43;;;;;;;94.20;88.50;;;12.10;99.90;;;;;;5062909;28;20182;-79
2022/10/20 06:24:10;;;;;;;104.10;98.37;;;12.10;99.90;;;;;;5062604;28;20277;-78
2022/10/20 06:26:37;;;;;;;90.77;85.57;;;12.20;99.90;;;;;;5060720;28;20205;-78
2022/10/20 06:29:06;;;;;;;80.03;75.53;;;12.20;99.90;;;;;;5060466;28;20254;-78
2022/10/20 06:31:34;;;;;;;69.50;65.53;;;12.30;99.90;;;;;;5059466;28;20174;-80
2022/10/20 06:34:02;;;;;;;68.73;64.90;;;12.30;99.90;;;;;;5060270;28;20243;-79
2022/10/20 06:36:28;;;;;;;64.47;60.70;;;12.40;99.90;;;;;;5061953;28;20187;-79
2022/10/20 06:38:57;;;;;;;73.80;69.53;;;12.40;99.90;;;;;;5066025;28;20193;-78
2022/10/20 06:41:24;;;;;;;73.93;69.73;;;12.50;99.90;;;;;;5067848;28;20238;-78
2022/10/20 06:43:57;;;;;;;51.13;48.07;;;12.50;99.90;;;;;;5067248;28;20237;-80
2022/10/20 06:46:23;;;;;;;43.43;40.63;;;12.50;99.90;;;;;;5064380;28;20186;-79
2022/10/20 06:48:49;;;;;;;22.60;21.00;;;12.50;99.90;;;;;;5063191;28;20212;-79
2022/10/20 06:51:23;;;;;;;21.53;19.97;;;12.60;99.90;;;;;;5056294;28;20250;-80
2022/10/20 06:53:50;;;;;;;16.30;15.10;;;12.60;99.90;;;;;;5044012;28;20218;-79
2022/10/20 06:56:24;;;;;;;15.73;14.37;;;12.80;99.90;;;;;;5052963;28;20181;-79
2022/10/20 06:58:54;;;;;;;13.90;12.13;;;12.80;99.90;;;;;;5062031;28;20187;-80
2022/10/20 07:01:24;;;;;;;10.53;9.57;;;12.90;99.90;;;;;;5061639;28;20174;-80
2022/10/20 07:03:53;;;;;;;12.00;9.20;;;13.00;99.90;;;;;;5060608;28;20205;-80
2022/10/20 07:06:22;;;;;;;10.47;9.37;;;13.10;99.90;;;;;;5060665;28;20245;-80
2022/10/20 07:08:49;;;;;;;29.00;27.13;;;13.20;99.90;;;;;;5051542;28;20229;-80
2022/10/20 07:11:17;;;;;;;132.27;125.30;;;13.40;99.90;;;;;;5041122;28;20606;-80
2022/10/20 07:13:44;;;;;;;65.47;61.80;;;13.40;99.90;;;;;;5050857;28;20273;-78
2022/10/20 07:16:14;;;;;;;27.10;25.47;;;13.50;99.90;;;;;;5052123;28;20170;-80
2022/10/20 07:18:39;;;;;;;11.87;10.93;;;13.60;99.90;;;;;;5042449;28;20183;-79
2022/10/20 07:21:08;;;;;;;10.53;9.67;;;13.70;99.90;;;;;;5043520;28;20183;-79
2022/10/20 07:23:35;;;;;;;23.33;21.97;;;13.80;99.90;;;;;;5041504;28;20210;-80
2022/10/20 07:26:03;;;;;;;36.40;34.20;;;13.90;99.90;;;;;;5043500;28;20628;-80
2022/10/20 07:28:30;;;;;;;42.00;39.67;;;14.20;99.90;;;;;;5042112;28;20207;-80
2022/10/20 07:30:56;;;;;;;12.17;11.37;;;14.50;99.90;;;;;;5044827;28;20233;-78
2022/10/20 07:33:22;;;;;;;10.13;9.23;;;14.80;99.90;;;;;;5042543;28;20211;-79
2022/10/20 07:35:48;;;;;;;14.73;13.37;;;14.90;99.90;;;;;;5043016;28;20171;-79
2022/10/20 07:38:14;;;;;;;15.37;14.17;;;15.10;99.90;;;;;;5042824;28;20190;-79
2022/10/20 07:40:40;;;;;;;15.70;14.70;;;15.00;99.90;;;;;;5040414;28;20187;-79
2022/10/20 07:43:06;;;;;;;16.53;15.33;;;14.90;99.90;;;;;;5042326;28;20234;-79
2022/10/20 07:45:32;;;;;;;12.90;12.10;;;14.80;99.90;;;;;;5052458;28;20185;-79
2022/10/20 07:47:58;;;;;;;11.43;10.53;;;14.90;99.90;;;;;;5071954;28;20188;-79
2022/10/20 07:50:24;;;;;;;13.93;12.73;;;14.90;99.90;;;;;;5071717;28;20182;-78
2022/10/20 07:52:51;;;;;;;10.17;9.47;;;15.00;99.90;;;;;;5068339;28;20202;-80
2022/10/20 07:55:18;;;;;;;10.83;10.13;;;15.00;99.90;;;;;;5064770;28;20186;-79
2022/10/20 07:57:44;;;;;;;11.43;10.63;;;15.00;99.90;;;;;;5065736;28;20193;-80
2022/10/20 08:00:10;;;;;;;9.93;9.20;;;14.80;99.90;;;;;;5067039;28;20194;-78
2022/10/20 08:02:36;;;;;;;10.70;9.50;;;15.00;99.90;;;;;;5070287;28;20216;-80
2022/10/20 08:05:02;;;;;;;11.13;10.27;;;15.00;99.90;;;;;;5069345;28;20183;-78
2022/10/20 08:07:28;;;;;;;8.47;7.77;;;15.10;99.90;;;;;;5065126;28;20186;-80
2022/10/20 08:09:53;;;;;;;9.70;8.90;;;15.40;99.90;;;;;;5062313;28;20678;-80
2022/10/20 08:12:19;;;;;;;7.43;6.90;;;15.60;99.90;;;;;;5061913;28;20213;-80
2022/10/20 08:14:45;;;;;;;8.13;7.57;;;15.80;99.90;;;;;;5062156;28;20662;-79
2022/10/20 08:17:11;;;;;;;9.17;8.53;;;16.00;99.90;;;;;;5061216;28;20486;-79
2022/10/20 08:19:36;;;;;;;19.30;18.20;;;16.30;99.90;;;;;;5063135;28;20181;-79
2022/10/20 08:22:02;;;;;;;21.13;20.03;;;16.10;99.90;;;;;;5061290;28;20284;-79
2022/10/20 08:24:28;;;;;;;21.67;20.27;;;16.10;99.90;;;;;;5061859;28;20178;-79
2022/10/20 08:26:54;;;;;;;23.57;22.20;;;16.00;99.90;;;;;;5059054;28;20186;-78
2022/10/20 08:29:20;;;;;;;8.53;7.93;;;16.10;99.90;;;;;;5063886;28;20631;-77
2022/10/20 08:31:46;;;;;;;20.10;19.00;;;16.10;99.90;;;;;;5061787;28;20178;-78
2022/10/20 08:34:11;;;;;;;9.30;8.70;;;16.20;99.90;;;;;;5063240;28;20182;-79
2022/10/20 08:36:37;;;;;;;15.67;14.73;;;16.80;99.90;;;;;;5063251;28;20205;-79
2022/10/20 08:39:03;;;;;;;15.77;14.83;;;17.20;99.90;;;;;;5061381;28;20228;-79
2022/10/20 08:41:33;;;;;;;26.13;24.50;;;17.00;99.90;;;;;;5062462;28;20186;-79
2022/10/20 08:44:02;;;;;;;27.50;26.00;;;17.00;99.90;;;;;;5058658;28;20234;-79
2022/10/20 08:46:32;;;;;;;22.17;20.90;;;16.90;99.90;;;;;;5043838;28;20179;-79
2022/10/20 08:48:58;;;;;;;26.23;24.63;;;16.90;99.90;;;;;;5038906;28;20209;-78
2022/10/20 08:51:27;;;;;;;29.23;27.53;;;17.00;99.90;;;;;;5040769;28;20633;-79
2022/10/20 08:53:56;;;;;;;29.73;28.13;;;17.10;99.90;;;;;;5040124;28;20586;-78
2022/10/20 08:56:25;;;;;;;29.10;27.53;;;17.10;99.90;;;;;;5039524;28;20179;-79
2022/10/20 08:58:52;;;;;;;28.73;27.23;;;17.10;99.90;;;;;;5041981;28;20235;-78
2022/10/20 09:01:28;;;;;;;14.60;13.53;;;17.50;99.90;;;;;;5043043;28;20179;-78
2022/10/20 09:04:24;;;;;;;12.27;11.47;;;17.60;99.90;;;;;;5043348;28;20582;-79
2022/10/20 09:06:56;;;;;;;10.40;9.50;;;17.80;99.90;;;;;;5038014;28;20241;-78
2022/10/20 09:09:24;;;;;;;12.80;11.90;;;17.60;99.90;;;;;;5045704;28;20229;-79
2022/10/20 09:11:51;;;;;;;9.27;8.70;;;17.70;99.90;;;;;;5042749;28;20183;-78
2022/10/20 09:14:16;;;;;;;8.43;7.63;;;18.00;99.90;;;;;;5046256;28;20674;-78
2022/10/20 09:16:45;;;;;;;7.00;6.40;;;18.00;99.90;;;;;;5044874;28;20179;-79
2022/10/20 09:19:22;;;;;;;11.83;11.03;;;18.30;99.90;;;;;;5043700;28;20207;-79
2022/10/20 09:21:52;;;;;;;18.30;17.20;;;18.50;99.90;;;;;;5042722;28;20207;-79
2022/10/20 09:24:20;;;;;;;32.93;31.17;;;18.90;99.90;;;;;;5043516;28;20663;-79
2022/10/20 09:26:48;;;;;;;8.67;8.17;;;19.60;99.90;;;;;;5040797;28;20190;-79
2022/10/20 09:29:17;;;;;;;17.23;16.33;;;20.00;99.90;;;;;;5041717;28;20214;-79
2022/10/20 09:31:46;;;;;;;30.87;29.10;;;20.20;99.90;;;;;;5039162;28;20179;-79
2022/10/20 09:34:32;;;;;;;63.40;60.03;;;20.30;99.90;;;;;;5047664;23;20231;-76
2022/10/20 09:37:12;;;;;;;59.90;56.90;;;20.10;99.90;;;;;;5027052;28;20191;-76
2022/10/20 09:40:11;;;;;;;65.23;61.93;;;20.20;99.90;;;;;;5026993;28;20210;-76
2022/10/20 09:42:43;;;;;;;63.83;60.60;;;19.90;99.90;;;;;;5010736;28;20187;-76
2022/10/20 09:45:27;;;;;;;76.20;72.40;;;20.00;99.90;;;;;;5013379;28;20216;-76
2022/10/20 09:48:00;;;;;;;68.90;65.40;;;20.20;99.90;;;;;;5012489;28;20249;-76
2022/10/20 09:50:29;;;;;;;72.80;69.17;;;20.20;99.90;;;;;;5011418;28;20184;-76
2022/10/20 09:52:56;;;;;;;82.27;77.97;;;19.80;99.90;;;;;;5012226;28;20175;-76
2022/10/20 09:55:33;;;;;;;83.97;79.93;;;19.50;99.90;;;;;;5014237;28;20196;-76
2022/10/20 09:58:01;;;;;;;48.97;46.37;;;19.20;99.90;;;;;;5028150;28;20195;-76
2022/10/20 10:00:36;;;;;;;21.67;19.93;;;18.90;99.90;;;;;;5012192;28;20321;-77
2022/10/20 10:03:20;;;;;;;16.13;15.17;;;18.70;99.90;;;;;;5011839;28;20179;-76
2022/10/20 10:05:54;;;;;;;7.93;7.13;;;18.50;99.90;;;;;;5010769;28;20180;-77
2022/10/20 10:08:22;;;;;;;7.50;7.00;;;18.50;99.90;;;;;;5011179;28;20257;-76
2022/10/20 10:11:13;;;;;;;10.70;9.43;;;18.50;99.90;;;;;;5011497;28;20710;-76
2022/10/20 10:13:42;;;;;;;8.83;7.20;;;18.50;99.90;;;;;;5010093;28;20211;-75
2022/10/20 10:16:12;;;;;;;6.97;6.47;;;18.40;99.90;;;;;;5011640;28;20219;-77
2022/10/20 10:18:39;;;;;;;7.50;6.90;;;18.40;99.90;;;;;;5009647;28;20183;-76
2022/10/20 10:21:08;;;;;;;6.93;6.23;;;18.40;99.90;;;;;;5011471;28;20183;-76
2022/10/20 10:23:39;;;;;;;7.33;6.60;;;18.30;99.90;;;;;;5009930;28;20207;-76
2022/10/20 10:26:51;;;;;;;7.17;6.60;;;18.40;99.90;;;;;;5011082;28;20190;-76
2022/10/20 10:29:18;;;;;;;7.13;6.63;;;18.60;99.90;;;;;;5007513;28;20234;-77
2022/10/20 10:31:57;;;;;;;9.50;8.90;;;18.70;99.90;;;;;;5011500;28;20176;-76
2022/10/20 10:34:30;;;;;;;19.93;18.40;;;18.60;99.90;;;;;;5010664;28;20219;-76
2022/10/20 10:36:57;;;;;;;22.77;21.47;;;18.60;99.90;;;;;;5010973;28;20167;-76
2022/10/20 10:39:22;;;;;;;15.83;14.90;;;18.50;99.90;;;;;;5010335;28;20184;-76
2022/10/20 10:42:20;;;;;;;17.10;16.13;;;18.50;99.90;;;;;;5011788;28;20690;-76
2022/10/20 10:44:55;;;;;;;13.23;12.33;;;18.60;99.90;;;;;;4957603;28;20220;-76
2022/10/20 10:47:46;;;;;;;9.83;9.13;;;18.60;99.90;;;;;;4988288;28;20223;-75
2022/10/20 10:50:41;;;;;;;10.90;9.90;;;18.70;99.90;;;;;;4990701;28;20212;-76
2022/10/20 10:53:33;;;;;;;25.20;23.70;;;19.30;99.90;;;;;;4991494;28;20599;-77
2022/10/20 10:56:04;;;;;;;66.63;63.00;;;20.00;99.90;;;;;;4990334;28;20180;-76
2022/10/20 10:59:05;;;;;;;45.60;43.30;;;20.80;99.90;;;;;;4989633;28;20192;-77
2022/10/20 11:01:58;;;;;;;18.30;17.00;;;21.10;99.90;;;;;;4990281;28;20188;-76
2022/10/20 11:04:30;;;;;;;18.43;17.27;;;21.00;99.90;;;;;;4990396;28;20314;-76
2022/10/20 11:07:23;;;;;;;21.60;20.37;;;20.40;99.90;;;;;;4991134;28;20188;-76
2022/10/20 11:10:27;;;;;;;22.33;21.03;;;20.00;99.90;;;;;;4992315;28;20215;-76
2022/10/20 11:12:53;;;;;;;20.03;18.83;;;19.90;99.90;;;;;;4944266;28;20228;-77
2022/10/20 11:15:38;;;;;;;24.03;22.77;;;19.90;99.90;;;;;;4990093;28;20203;-76
2022/10/20 11:18:31;;;;;;;16.40;15.17;;;19.90;99.90;;;;;;4991001;28;20188;-77
2022/10/20 11:21:09;;;;;;;26.97;25.47;;;19.50;99.90;;;;;;4990471;28;20239;-76
2022/10/20 11:23:52;;;;;;;45.53;42.70;;;19.20;99.90;;;;;;4991938;28;20227;-77
2022/10/20 11:26:35;;;;;;;78.63;74.33;;;19.00;99.90;;;;;;4991099;28;20246;-77
2022/10/20 11:29:05;;;;;;;100.50;95.33;;;18.70;99.90;;;;;;4989132;28;20216;-76
2022/10/20 11:32:02;;;;;;;104.23;99.07;;;18.80;99.90;;;;;;4990103;28;20188;-76
2022/10/20 11:34:43;;;;;;;14.40;13.43;;;18.60;99.90;;;;;;4992771;28;20212;-77
2022/10/20 11:37:26;;;;;;;8.30;7.47;;;18.20;99.90;;;;;;4993717;28;20188;-77
2022/10/20 11:40:10;;;;;;;7.57;7.07;;;18.20;99.90;;;;;;4990296;28;20560;-77
2022/10/20 11:42:43;;;;;;;8.10;7.60;;;18.40;99.90;;;;;;4991149;28;20650;-76
2022/10/20 11:45:27;;;;;;;7.70;7.00;;;18.50;99.90;;;;;;4991048;28;20570;-76
2022/10/20 11:48:05;;;;;;;8.13;7.37;;;18.50;99.90;;;;;;4989258;28;20537;-77
2022/10/20 11:50:32;;;;;;;9.00;8.33;;;18.20;99.90;;;;;;4991003;28;20185;-77
2022/10/20 11:53:18;;;;;;;8.00;7.33;;;18.20;99.90;;;;;;4990019;28;20719;-76
2022/10/20 11:56:02;;;;;;;7.50;6.90;;;18.40;99.90;;;;;;4991545;28;20180;-77
2022/10/20 11:58:57;;;;;;;7.40;6.80;;;18.40;99.90;;;;;;4990604;28;20188;-77
2022/10/20 12:01:59;;;;;;;14.27;8.07;;;18.50;99.90;;;;;;4990992;28;20263;-77
2022/10/20 12:04:37;;;;;;;7.47;6.87;;;18.60;99.90;;;;;;4989656;28;20550;-77
2022/10/20 12:07:34;;;;;;;9.07;7.20;;;18.60;99.90;;;;;;4989347;28;20192;-77
2022/10/20 12:10:28;;;;;;;10.03;8.20;;;18.50;99.90;;;;;;4991021;28;20208;-77
2022/10/20 12:13:03;;;;;;;8.53;7.73;;;18.40;99.90;;;;;;4994180;28;20185;-77
2022/10/20 12:15:29;;;;;;;9.80;8.97;;;18.50;99.90;;;;;;4994211;28;20199;-77
2022/10/20 12:18:16;;;;;;;8.47;7.87;;;18.40;99.90;;;;;;4992750;28;20180;-77
2022/10/20 12:20:55;;;;;;;7.93;7.30;;;18.60;99.90;;;;;;4993074;28;20558;-77
2022/10/20 12:23:43;;;;;;;7.90;7.30;;;18.70;99.90;;;;;;4994398;28;20191;-77
2022/10/20 12:26:28;;;;;;;8.90;8.10;;;18.70;99.90;;;;;;4992898;28;20538;-76
2022/10/20 12:29:14;;;;;;;7.80;7.10;;;18.70;99.90;;;;;;4992438;28;20223;-77
2022/10/20 12:32:19;;;;;;;7.70;7.13;;;18.40;99.90;;;;;;4962580;28;20214;-77
2022/10/20 12:34:47;;;;;;;8.73;8.03;;;18.30;99.90;;;;;;4992591;28;20212;-76
2022/10/20 12:37:23;;;;;;;10.47;9.53;;;18.10;99.90;;;;;;4993689;28;20172;-76
2022/10/20 12:39:50;;;;;;;9.70;8.60;;;18.00;99.90;;;;;;4993804;28;20229;-76
2022/10/20 12:42:22;;;;;;;10.63;9.73;;;18.00;99.90;;;;;;4994186;28;20290;-77
2022/10/20 12:44:48;;;;;;;10.53;9.80;;;17.90;99.90;;;;;;4994474;28;20207;-77
2022/10/20 12:47:24;;;;;;;11.20;10.23;;;17.80;99.90;;;;;;4992618;28;20247;-77
2022/10/20 12:50:03;;;;;;;10.67;9.90;;;17.70;99.90;;;;;;4993895;28;20788;-76
2022/10/20 12:52:35;;;;;;;13.90;12.77;;;17.60;99.90;;;;;;4992667;28;20630;-75